Time;durP1;ratioP1;P1;durP2;ratioP2;P2;SDS_P1;SDS_P2;PMS_P1;PMS_P2;Temp;Humidity;BMP_temperature;BMP_pressure;BME280_temperature;BME280_humidity;BME280_pressure;Samples;Min_cycle;Max_cycle;Signal;HPM_P1;HPM_P2
2021/01/07 07:19:38;;;;;;;5.18;4.78;;;17.30;64.50;;;;;;5104567;27;20364;-44
2021/01/07 07:22:04;;;;;;;4.32;4.10;;;17.30;65.10;;;;;;5106512;28;20028;-43
2021/01/07 07:24:50;;;;;;;5.25;4.82;;;17.30;64.80;;;;;;5104247;28;20031;-42
2021/01/07 07:27:17;;;;;;;4.85;4.50;;;17.40;64.90;;;;;;5106081;28;20036;-40
2021/01/07 07:29:44;;;;;;;4.88;4.40;;;17.40;64.70;;;;;;5107508;28;20051;-41
2021/01/07 07:32:23;;;;;;;5.57;5.18;;;17.50;64.40;;;;;;5106028;28;20559;-41
2021/01/07 07:34:49;;;;;;;8.00;7.20;;;17.60;64.40;;;;;;5103063;28;20118;-41
2021/01/07 07:37:33;;;;;;;7.72;5.95;;;17.60;64.20;;;;;;5105858;28;20697;-41
2021/01/07 07:40:00;;;;;;;5.57;5.18;;;17.70;64.10;;;;;;5105947;28;20034;-41
2021/01/07 07:42:27;;;;;;;6.20;5.70;;;17.80;63.80;;;;;;5106026;28;20038;-42
2021/01/07 07:44:53;;;;;;;7.00;6.40;;;17.80;63.90;;;;;;5106437;28;20026;-40
2021/01/07 07:47:20;;;;;;;7.10;6.43;;;17.90;63.60;;;;;;5103332;28;20031;-43
2021/01/07 07:49:52;;;;;;;8.18;7.10;;;17.90;63.40;;;;;;5105535;28;20020;-43
2021/01/07 07:52:22;;;;;;;7.15;6.55;;;17.90;63.20;;;;;;5105748;28;20039;-40
2021/01/07 07:55:08;;;;;;;7.38;6.78;;;17.90;63.00;;;;;;5092855;27;20131;-41
2021/01/07 07:57:47;;;;;;;7.00;6.40;;;18.00;62.80;;;;;;5070465;28;20086;-43
2021/01/07 08:00:15;;;;;;;6.95;6.45;;;18.00;62.80;;;;;;5061786;28;20045;-41
2021/01/07 08:02:44;;;;;;;6.70;6.10;;;18.00;62.80;;;;;;5096705;28;20045;-40
2021/01/07 08:05:23;;;;;;;7.22;6.63;;;18.00;62.80;;;;;;5064280;28;20048;-41
2021/01/07 08:07:53;;;;;;;6.70;6.13;;;18.00;62.80;;;;;;5067613;28;20071;-40
2021/01/07 08:10:18;;;;;;;7.75;6.00;;;17.90;62.70;;;;;;5076141;28;20044;-39
2021/01/07 08:12:44;;;;;;;6.72;6.13;;;18.00;62.80;;;;;;5082968;28;20052;-39
2021/01/07 08:15:10;;;;;;;6.57;6.07;;;18.00;62.50;;;;;;5077952;28;20389;-39
2021/01/07 08:17:35;;;;;;;6.28;5.78;;;18.00;62.60;;;;;;5084881;28;20066;-43
2021/01/07 08:20:01;;;;;;;6.20;5.70;;;18.00;62.70;;;;;;5080874;28;20040;-39
2021/01/07 08:22:27;;;;;;;6.75;6.15;;;17.90;62.60;;;;;;5080002;28;20101;-40
2021/01/07 08:24:56;;;;;;;5.93;5.53;;;17.90;62.60;;;;;;5075482;28;20043;-41
2021/01/07 08:27:23;;;;;;;6.93;6.32;;;17.90;62.60;;;;;;5056527;28;20518;-40
2021/01/07 08:29:55;;;;;;;7.35;6.70;;;17.90;62.40;;;;;;5070991;28;20045;-39
2021/01/07 08:32:22;;;;;;;6.50;6.00;;;17.90;62.30;;;;;;5067925;28;20044;-41
2021/01/07 08:34:48;;;;;;;5.97;5.50;;;17.90;62.30;;;;;;5066424;28;20457;-41
2021/01/07 08:37:19;;;;;;;5.78;5.38;;;17.90;62.40;;;;;;5063755;28;20523;-41
2021/01/07 08:39:45;;;;;;;5.15;4.75;;;17.90;62.40;;;;;;5066479;28;20045;-41
2021/01/07 08:42:11;;;;;;;5.80;5.25;;;17.90;62.30;;;;;;5066507;28;20488;-40
2021/01/07 08:44:36;;;;;;;5.47;5.00;;;17.90;62.30;;;;;;5066863;28;20048;-41
2021/01/07 08:47:02;;;;;;;5.47;5.07;;;17.90;62.30;;;;;;5067532;28;20127;-42
2021/01/07 08:49:28;;;;;;;6.47;5.97;;;17.90;62.30;;;;;;5064749;28;20056;-42
2021/01/07 08:51:59;;;;;;;6.20;5.72;;;17.90;62.30;;;;;;5066939;28;20417;-42
2021/01/07 08:54:25;;;;;;;5.88;5.47;;;17.90;62.10;;;;;;5064948;28;20040;-41
2021/01/07 08:56:55;;;;;;;5.28;4.88;;;17.90;62.30;;;;;;5061046;28;20045;-41
2021/01/07 08:59:33;;;;;;;5.30;4.90;;;17.90;62.20;;;;;;5066258;28;20052;-44
2021/01/07 09:02:04;;;;;;;6.07;5.68;;;17.90;62.00;;;;;;5061367;28;20040;-42
2021/01/07 09:04:33;;;;;;;5.68;5.25;;;17.90;61.90;;;;;;5065305;28;20044;-42
2021/01/07 09:07:20;;;;;;;6.32;5.68;;;17.90;61.90;;;;;;5064762;28;20044;-42
2021/01/07 09:09:55;;;;;;;6.10;5.55;;;17.90;62.50;;;;;;5064641;28;20041;-42
2021/01/07 09:12:29;;;;;;;6.10;5.60;;;17.90;61.80;;;;;;5065693;28;20123;-42
2021/01/07 09:15:04;;;;;;;6.32;5.82;;;18.00;61.70;;;;;;5065877;28;20504;-42
2021/01/07 09:17:44;;;;;;;6.03;5.50;;;17.90;61.50;;;;;;5067776;28;20044;-42
2021/01/07 09:20:11;;;;;;;6.45;5.95;;;18.00;61.60;;;;;;5052632;28;20041;-42
2021/01/07 09:22:37;;;;;;;9.43;8.52;;;18.00;61.40;;;;;;5068322;28;20044;-42
2021/01/07 09:25:03;;;;;;;8.48;7.75;;;18.00;61.30;;;;;;5056905;28;20173;-43
2021/01/07 09:27:28;;;;;;;9.63;8.40;;;18.00;61.30;;;;;;5067287;28;20484;-42
2021/01/07 09:29:54;;;;;;;10.57;8.57;;;18.00;61.20;;;;;;5069791;28;20040;-42
2021/01/07 09:32:20;;;;;;;9.23;8.38;;;18.00;61.10;;;;;;5067409;28;20522;-40
2021/01/07 09:34:46;;;;;;;10.13;9.13;;;18.00;61.10;;;;;;5064357;28;20044;-41
2021/01/07 09:37:13;;;;;;;9.35;8.45;;;18.00;61.30;;;;;;5064417;28;20166;-39
2021/01/07 09:39:39;;;;;;;9.50;8.50;;;18.10;61.10;;;;;;5065183;28;20064;-41
2021/01/07 09:42:05;;;;;;;8.63;7.93;;;18.10;60.90;;;;;;5064564;28;20040;-42
2021/01/07 09:44:31;;;;;;;8.57;7.88;;;18.10;60.70;;;;;;5066862;28;20041;-43
2021/01/07 09:46:57;;;;;;;8.63;7.82;;;18.10;60.70;;;;;;5063865;28;20049;-41
2021/01/07 09:49:24;;;;;;;8.38;7.70;;;18.10;60.70;;;;;;5064803;28;20052;-40
2021/01/07 09:51:49;;;;;;;8.23;7.53;;;18.20;60.70;;;;;;5065899;28;20040;-40
2021/01/07 09:54:15;;;;;;;8.57;7.78;;;18.20;60.70;;;;;;5067268;28;20045;-38
2021/01/07 09:56:41;;;;;;;8.80;8.07;;;18.30;60.70;;;;;;5045375;28;20041;-47
2021/01/07 09:59:07;;;;;;;8.40;7.70;;;18.30;60.60;;;;;;5042494;28;20070;-40
2021/01/07 10:01:32;;;;;;;8.30;7.60;;;18.30;60.60;;;;;;5041597;28;20408;-40
2021/01/07 10:03:58;;;;;;;8.05;7.35;;;18.30;60.70;;;;;;5045611;28;20142;-39
2021/01/07 10:06:24;;;;;;;7.82;7.13;;;18.30;60.60;;;;;;5062096;28;20056;-39
2021/01/07 10:08:49;;;;;;;7.65;7.03;;;18.30;60.70;;;;;;5062451;28;20068;-41
2021/01/07 10:11:15;;;;;;;8.00;7.30;;;18.30;60.50;;;;;;5058008;28;20078;-37
2021/01/07 10:13:40;;;;;;;7.78;7.07;;;18.30;60.50;;;;;;5054341;28;20065;-43
2021/01/07 10:16:09;;;;;;;8.80;8.00;;;18.40;60.50;;;;;;5061310;28;20060;-42
2021/01/07 10:18:35;;;;;;;7.95;7.35;;;18.40;60.40;;;;;;5061088;28;20148;-42
2021/01/07 10:21:01;;;;;;;8.05;7.45;;;18.40;60.40;;;;;;5058290;28;20064;-42
2021/01/07 10:23:27;;;;;;;9.00;8.13;;;18.40;60.50;;;;;;5060235;28;20045;-43
2021/01/07 10:25:53;;;;;;;7.75;7.07;;;18.40;60.50;;;;;;5057575;28;20098;-42
2021/01/07 10:28:18;;;;;;;7.43;6.93;;;18.40;60.60;;;;;;5039579;28;20451;-42
2021/01/07 10:30:44;;;;;;;7.30;6.70;;;18.40;60.60;;;;;;5034945;28;20082;-43
2021/01/07 10:33:10;;;;;;;7.18;6.57;;;18.40;60.60;;;;;;5064389;28;20444;-44
2021/01/07 10:35:38;;;;;;;8.18;7.47;;;18.40;60.50;;;;;;5042109;28;20057;-42
2021/01/07 10:38:04;;;;;;;7.53;7.00;;;18.40;60.50;;;;;;5058499;28;20503;-45
2021/01/07 10:40:31;;;;;;;7.88;7.25;;;18.40;60.60;;;;;;5051885;28;20130;-43
2021/01/07 10:42:58;;;;;;;8.25;7.45;;;18.40;60.70;;;;;;5062969;28;20049;-42
2021/01/07 10:45:23;;;;;;;8.18;7.50;;;18.40;60.70;;;;;;5064697;28;20127;-41
2021/01/07 10:47:49;;;;;;;7.15;6.55;;;18.40;60.70;;;;;;5059712;28;20132;-43
2021/01/07 10:50:17;;;;;;;6.88;6.30;;;18.50;60.70;;;;;;5069018;28;20056;-39
2021/01/07 10:53:12;;;;;;;6.85;6.35;;;18.50;60.70;;;;;;5066868;28;20464;-43
2021/01/07 10:55:53;;;;;;;8.13;7.32;;;18.50;60.70;;;;;;5023051;28;20049;-43
2021/01/07 10:58:25;;;;;;;6.88;6.38;;;18.50;60.70;;;;;;5019983;28;20045;-43
2021/01/07 11:01:02;;;;;;;7.35;6.68;;;18.60;60.40;;;;;;5006728;28;20116;-44
2021/01/07 11:03:45;;;;;;;6.82;6.22;;;18.60;60.30;;;;;;4673976;28;10000198;-41
2021/01/07 11:06:12;;;;;;;6.57;5.97;;;18.60;60.00;;;;;;5025158;28;20505;-43
2021/01/07 11:09:13;;;;;;;6.22;5.82;;;18.70;59.90;;;;;;5025866;28;20049;-41
2021/01/07 11:11:49;;;;;;;6.28;5.88;;;18.70;59.70;;;;;;4928648;29;21004;-46
2021/01/07 11:14:37;;;;;;;6.70;6.15;;;18.70;59.70;;;;;;4928185;29;20048;-39
2021/01/07 11:17:06;;;;;;;5.95;5.47;;;18.70;59.60;;;;;;4904943;29;20048;-42
2021/01/07 11:19:31;;;;;;;5.47;5.07;;;18.80;59.60;;;;;;4917451;29;20108;-41
2021/01/07 11:22:14;;;;;;;6.32;5.90;;;18.80;59.50;;;;;;4899883;29;20066;-43
2021/01/07 11:24:42;;;;;;;6.00;5.50;;;18.70;59.40;;;;;;4897141;29;20074;-45
2021/01/07 11:27:10;;;;;;;5.80;5.30;;;18.80;59.50;;;;;;4914167;29;20040;-42
2021/01/07 11:29:35;;;;;;;5.82;5.35;;;18.80;59.50;;;;;;4916438;29;20052;-44
2021/01/07 11:32:02;;;;;;;6.38;5.97;;;18.80;59.50;;;;;;4918377;29;20047;-44
2021/01/07 11:34:28;;;;;;;6.25;5.75;;;18.80;59.50;;;;;;4924367;28;20129;-41
2021/01/07 11:37:04;;;;;;;6.70;6.10;;;18.80;59.50;;;;;;4967589;28;20050;-43
2021/01/07 11:39:51;;;;;;;6.55;6.05;;;18.80;59.50;;;;;;4933778;28;20039;-44
2021/01/07 11:42:34;;;;;;;6.45;5.95;;;18.80;59.50;;;;;;4946062;28;20557;-46
2021/01/07 11:45:04;;;;;;;6.32;5.82;;;18.90;59.60;;;;;;4975385;28;20062;-50
2021/01/07 11:47:32;;;;;;;5.75;5.35;;;18.90;59.50;;;;;;5017694;28;20049;-42
2021/01/07 11:49:58;;;;;;;5.80;5.35;;;18.90;59.50;;;;;;5057046;28;20047;-41
2021/01/07 11:52:24;;;;;;;7.03;5.90;;;18.90;59.50;;;;;;5058331;28;20053;-47
2021/01/07 11:54:49;;;;;;;5.78;5.38;;;18.90;59.60;;;;;;5046263;28;20416;-41
2021/01/07 11:57:15;;;;;;;5.20;4.90;;;18.90;59.50;;;;;;5044818;28;20095;-40
2021/01/07 11:59:40;;;;;;;5.15;4.80;;;18.90;59.50;;;;;;5051005;28;20040;-40
2021/01/07 12:02:07;;;;;;;5.32;4.93;;;18.90;59.50;;;;;;5053148;28;20523;-40
2021/01/07 12:04:34;;;;;;;4.80;4.45;;;18.90;59.60;;;;;;5049585;28;20206;-39
2021/01/07 12:07:03;;;;;;;6.72;5.97;;;18.90;59.50;;;;;;5052660;28;20099;-39
2021/01/07 12:09:43;;;;;;;5.57;5.07;;;18.90;59.60;;;;;;5051151;28;20048;-40
2021/01/07 12:12:15;;;;;;;5.03;4.63;;;18.90;59.60;;;;;;5050686;28;20044;-41
2021/01/07 12:15:01;;;;;;;5.13;4.72;;;18.90;59.50;;;;;;5064444;28;20040;-40
2021/01/07 12:17:27;;;;;;;4.95;4.55;;;18.90;59.60;;;;;;5057084;28;20055;-41
2021/01/07 12:19:52;;;;;;;4.85;4.40;;;19.00;59.60;;;;;;5047247;28;20045;-43
2021/01/07 12:22:18;;;;;;;4.80;4.50;;;19.00;59.50;;;;;;5050579;28;20055;-44
2021/01/07 12:24:44;;;;;;;4.78;4.38;;;19.00;59.50;;;;;;5039141;28;20395;-42
2021/01/07 12:27:09;;;;;;;5.50;5.10;;;19.00;59.60;;;;;;5053785;28;20068;-43
2021/01/07 12:29:39;;;;;;;4.63;4.32;;;19.00;59.60;;;;;;5067723;28;20070;-42
2021/01/07 12:32:20;;;;;;;4.88;4.57;;;19.00;59.60;;;;;;5065969;28;20044;-40
2021/01/07 12:35:21;;;;;;;4.95;4.55;;;19.00;59.50;;;;;;5060523;28;20045;-42
2021/01/07 12:38:05;;;;;;;4.78;4.47;;;19.10;59.60;;;;;;5045603;28;20056;-43
2021/01/07 12:40:35;;;;;;;5.30;4.78;;;19.10;59.60;;;;;;5064632;28;20090;-42
2021/01/07 12:43:01;;;;;;;5.07;4.68;;;19.10;59.50;;;;;;5052988;28;20152;-41
2021/01/07 12:45:26;;;;;;;5.60;5.20;;;19.10;59.60;;;;;;5053378;28;20546;-43
2021/01/07 12:47:53;;;;;;;6.13;5.53;;;19.00;59.90;;;;;;5068268;28;20381;-43
2021/01/07 12:50:18;;;;;;;5.55;5.15;;;18.90;59.90;;;;;;5048264;28;20044;-42
2021/01/07 12:52:44;;;;;;;4.93;4.63;;;18.90;59.80;;;;;;5076065;28;20069;-41
2021/01/07 12:55:10;;;;;;;4.78;4.47;;;18.90;59.80;;;;;;5057170;28;20044;-42
2021/01/07 12:58:09;;;;;;;5.25;4.68;;;19.00;59.80;;;;;;5052996;28;20048;-42
2021/01/07 13:00:37;;;;;;;4.60;4.25;;;19.00;59.80;;;;;;5049527;28;20123;-42
2021/01/07 13:03:30;;;;;;;4.88;4.57;;;19.00;59.80;;;;;;5067960;28;20058;-42
2021/01/07 13:05:56;;;;;;;4.80;4.40;;;19.00;59.90;;;;;;5057851;28;20469;-41
2021/01/07 13:08:22;;;;;;;5.75;5.20;;;19.00;59.80;;;;;;5066727;28;20116;-35
2021/01/07 13:10:49;;;;;;;4.93;4.40;;;19.00;59.90;;;;;;5052063;28;20064;-45
2021/01/07 13:13:14;;;;;;;4.80;4.50;;;18.90;60.00;;;;;;5059544;28;20420;-42
2021/01/07 13:15:41;;;;;;;4.55;4.25;;;18.90;60.20;;;;;;5060158;28;20037;-42
2021/01/07 13:18:07;;;;;;;4.82;4.43;;;18.90;60.40;;;;;;5066895;28;20140;-41
2021/01/07 13:20:32;;;;;;;4.65;4.35;;;18.90;60.40;;;;;;5063399;28;20127;-39
2021/01/07 13:22:58;;;;;;;5.18;4.88;;;18.80;60.50;;;;;;5062566;28;20051;-41
2021/01/07 13:25:26;;;;;;;5.10;4.55;;;18.80;60.30;;;;;;5044479;28;20410;-37
2021/01/07 13:27:52;;;;;;;5.30;4.82;;;18.80;60.50;;;;;;5064956;28;20072;-42
2021/01/07 13:30:18;;;;;;;5.13;4.72;;;18.80;60.40;;;;;;5047487;28;20028;-41
2021/01/07 13:32:47;;;;;;;4.75;4.45;;;18.80;60.30;;;;;;5070984;28;20051;-41
2021/01/07 13:35:14;;;;;;;4.53;4.22;;;18.80;60.20;;;;;;5058737;28;20576;-46
2021/01/07 13:37:41;;;;;;;6.10;5.70;;;18.80;60.20;;;;;;5066771;28;20048;-38
2021/01/07 13:40:07;;;;;;;4.70;4.40;;;18.90;60.30;;;;;;5065882;28;20419;-41
2021/01/07 13:42:32;;;;;;;4.30;4.03;;;18.90;60.30;;;;;;5063385;28;20059;-42
2021/01/07 13:44:59;;;;;;;4.95;4.65;;;18.80;60.20;;;;;;5069623;28;20044;-41
2021/01/07 13:47:27;;;;;;;6.65;4.78;;;18.80;60.20;;;;;;5054907;28;20105;-45
2021/01/07 13:49:55;;;;;;;6.50;5.20;;;18.80;60.30;;;;;;5054131;28;20044;-42
2021/01/07 13:52:21;;;;;;;5.47;5.05;;;18.80;60.50;;;;;;5042700;28;20068;-41
2021/01/07 13:54:47;;;;;;;5.60;5.20;;;18.80;60.30;;;;;;5050280;28;20048;-44
2021/01/07 13:57:12;;;;;;;5.45;5.05;;;18.80;60.40;;;;;;5062620;28;20530;-43
2021/01/07 13:59:38;;;;;;;5.25;4.95;;;18.70;60.40;;;;;;5069692;28;20040;-41
2021/01/07 14:02:03;;;;;;;5.45;5.13;;;18.70;60.50;;;;;;5065241;28;20048;-40
2021/01/07 14:04:38;;;;;;;5.32;4.93;;;18.70;60.60;;;;;;5077655;28;20050;-42
2021/01/07 14:07:05;;;;;;;;;;;18.70;60.60;;;;;;5057409;28;20054;-43
2021/01/07 14:09:30;;;;;;;4.03;3.72;;;18.70;60.50;;;;;;5089156;28;19912;-42
2021/01/07 14:11:56;;;;;;;5.43;4.50;;;18.70;60.30;;;;;;5050418;28;20075;-42
2021/01/07 14:14:21;;;;;;;4.90;4.53;;;18.70;60.30;;;;;;5059236;28;20048;-41
2021/01/07 14:16:47;;;;;;;4.72;4.43;;;18.70;60.40;;;;;;5061101;28;20078;-44
2021/01/07 14:19:14;;;;;;;5.05;4.65;;;18.70;60.20;;;;;;5064197;28;20136;-38
2021/01/07 14:21:39;;;;;;;4.78;4.47;;;18.70;60.30;;;;;;5061235;28;20033;-42
2021/01/07 14:24:11;;;;;;;5.05;4.63;;;18.70;60.20;;;;;;5066588;28;20040;-46
2021/01/07 14:26:55;;;;;;;4.57;4.32;;;18.70;60.20;;;;;;5066317;28;20086;-44
2021/01/07 14:29:20;;;;;;;4.65;4.20;;;18.70;60.10;;;;;;5065445;28;20055;-42
2021/01/07 14:31:46;;;;;;;4.65;4.35;;;18.70;60.00;;;;;;5047511;28;20048;-41
2021/01/07 14:34:12;;;;;;;3.95;3.75;;;18.70;60.00;;;;;;5074572;28;20479;-44
2021/01/07 14:36:40;;;;;;;4.43;4.13;;;18.80;60.10;;;;;;5055174;28;20037;-36
2021/01/07 14:39:06;;;;;;;3.63;3.42;;;18.80;59.90;;;;;;5064844;28;20126;-41
2021/01/07 14:41:31;;;;;;;4.43;4.15;;;18.80;60.00;;;;;;5059201;28;20105;-45
2021/01/07 14:43:57;;;;;;;3.63;3.42;;;18.80;59.80;;;;;;5063465;28;20073;-44
2021/01/07 14:46:24;;;;;;;4.57;4.28;;;18.80;59.70;;;;;;5041589;28;20118;-44
2021/01/07 14:48:51;;;;;;;4.03;3.72;;;18.80;59.70;;;;;;5043015;28;20100;-44
2021/01/07 14:51:16;;;;;;;4.03;3.83;;;18.80;59.70;;;;;;5044418;28;20033;-43
2021/01/07 14:53:43;;;;;;;4.15;3.78;;;18.70;59.70;;;;;;5042078;28;20063;-46
2021/01/07 14:56:10;;;;;;;3.88;3.67;;;18.70;59.80;;;;;;5041075;28;20459;-46
2021/01/07 14:58:49;;;;;;;3.75;3.50;;;18.70;59.80;;;;;;5063466;28;20051;-44
2021/01/07 15:01:20;;;;;;;4.30;4.00;;;18.70;60.00;;;;;;5059813;28;20041;-44
2021/01/07 15:03:52;;;;;;;4.65;4.25;;;18.70;59.80;;;;;;5069262;28;20051;-42
2021/01/07 15:06:26;;;;;;;3.88;3.67;;;18.70;59.90;;;;;;5043893;28;20075;-44
2021/01/07 15:09:05;;;;;;;3.58;3.28;;;18.60;59.90;;;;;;5063772;28;20041;-42
2021/01/07 15:11:36;;;;;;;3.83;3.28;;;18.70;60.00;;;;;;5071823;28;20385;-43
2021/01/07 15:14:03;;;;;;;4.28;3.70;;;18.70;60.00;;;;;;5072717;28;20131;-45
2021/01/07 15:16:29;;;;;;;3.60;3.40;;;18.70;60.00;;;;;;5058927;28;20048;-41
2021/01/07 15:19:03;;;;;;;3.70;3.50;;;18.70;59.90;;;;;;5038519;28;20050;-44
2021/01/07 15:21:32;;;;;;;3.95;3.75;;;18.70;59.90;;;;;;5041052;28;20045;-44
2021/01/07 15:24:13;;;;;;;3.50;3.30;;;18.70;60.00;;;;;;5060738;28;20119;-43
2021/01/07 15:27:10;;;;;;;4.03;3.53;;;18.70;60.10;;;;;;5062134;28;20074;-41
2021/01/07 15:29:41;;;;;;;7.93;3.72;;;18.70;59.90;;;;;;5053007;28;20519;-42
2021/01/07 15:32:11;;;;;;;3.75;3.55;;;18.70;60.00;;;;;;5064974;28;20510;-43
2021/01/07 15:34:42;;;;;;;3.22;3.05;;;18.70;59.90;;;;;;5051350;28;20063;-39
2021/01/07 15:37:45;;;;;;;3.45;3.25;;;18.60;59.80;;;;;;5064264;28;20040;-41
2021/01/07 15:40:26;;;;;;;3.63;3.33;;;18.60;59.90;;;;;;5064786;28;20063;-41
2021/01/07 15:43:02;;;;;;;3.75;3.50;;;18.60;59.80;;;;;;5065218;28;20396;-42
2021/01/07 15:45:37;;;;;;;3.83;3.63;;;18.60;59.90;;;;;;5063940;28;20043;-40
2021/01/07 15:48:21;;;;;;;3.20;3.00;;;18.60;59.90;;;;;;5069846;28;20044;-39
2021/01/07 15:50:56;;;;;;;3.65;3.45;;;18.60;60.00;;;;;;5070854;28;20447;-42
2021/01/07 15:53:43;;;;;;;3.63;3.42;;;18.60;59.80;;;;;;5075153;28;20044;-41
2021/01/07 15:56:27;;;;;;;3.22;3.03;;;18.60;60.00;;;;;;5058736;28;20052;-42
2021/01/07 15:59:14;;;;;;;3.28;3.08;;;18.60;59.90;;;;;;5052606;28;20079;-37
2021/01/07 16:01:45;;;;;;;3.35;3.15;;;18.60;59.80;;;;;;5074846;28;20083;-41
2021/01/07 16:04:29;;;;;;;2.88;2.78;;;18.60;59.90;;;;;;5061924;28;20041;-41
2021/01/07 16:06:57;;;;;;;3.33;3.05;;;18.60;59.70;;;;;;5064949;28;20053;-40
2021/01/07 16:09:23;;;;;;;2.60;2.50;;;18.70;59.80;;;;;;5046396;28;20629;-34
2021/01/07 16:11:49;;;;;;;2.78;2.58;;;18.70;60.30;;;;;;5049312;28;20092;-36
2021/01/07 16:14:15;;;;;;;2.63;2.50;;;18.70;59.50;;;;;;5059810;28;20071;-37
2021/01/07 16:16:40;;;;;;;2.63;2.53;;;18.70;59.60;;;;;;5061404;28;20053;-36
2021/01/07 16:19:06;;;;;;;2.30;2.20;;;18.70;59.60;;;;;;5068516;28;20056;-41
2021/01/07 16:21:52;;;;;;;2.58;2.47;;;18.80;59.50;;;;;;5068240;28;20051;-34
2021/01/07 16:24:19;;;;;;;2.28;2.17;;;18.80;59.50;;;;;;5068091;28;20045;-34
2021/01/07 16:26:46;;;;;;;2.33;2.22;;;18.80;59.50;;;;;;5061571;28;20523;-36
2021/01/07 16:29:11;;;;;;;2.97;2.80;;;18.80;60.10;;;;;;5073716;28;20048;-36
2021/01/07 16:31:38;;;;;;;2.70;2.60;;;18.80;59.50;;;;;;5041777;28;20067;-34
2021/01/07 16:34:04;;;;;;;3.17;2.97;;;18.80;59.50;;;;;;5067524;28;20419;-35
2021/01/07 16:36:29;;;;;;;2.95;2.80;;;18.80;59.50;;;;;;5068755;28;20052;-35
2021/01/07 16:38:55;;;;;;;2.58;2.47;;;18.80;59.40;;;;;;5067733;28;20370;-37
2021/01/07 16:41:20;;;;;;;2.78;2.67;;;18.80;59.20;;;;;;5057347;28;20052;-36
2021/01/07 16:43:46;;;;;;;2.50;2.40;;;18.80;59.50;;;;;;5029047;28;20045;-36
2021/01/07 16:46:12;;;;;;;2.58;2.47;;;18.80;59.40;;;;;;5044079;28;20072;-37
2021/01/07 16:48:38;;;;;;;2.80;2.70;;;18.80;59.90;;;;;;5046654;28;20036;-35
2021/01/07 16:51:04;;;;;;;2.50;2.40;;;18.80;59.30;;;;;;5045813;28;20048;-39
2021/01/07 16:53:29;;;;;;;2.70;2.60;;;18.80;59.40;;;;;;5059665;28;20565;-36
2021/01/07 16:55:55;;;;;;;2.78;2.60;;;18.70;59.50;;;;;;5057996;28;20060;-37
2021/01/07 16:58:20;;;;;;;2.60;2.50;;;18.70;59.40;;;;;;5066554;28;20067;-39
2021/01/07 17:00:46;;;;;;;2.60;2.50;;;18.70;59.40;;;;;;5060953;28;20489;-36
2021/01/07 17:03:12;;;;;;;2.80;2.47;;;18.70;59.50;;;;;;5068246;28;20049;-38
2021/01/07 17:05:38;;;;;;;2.40;2.30;;;18.70;59.60;;;;;;5067680;28;20068;-34
2021/01/07 17:08:04;;;;;;;2.58;2.47;;;18.70;59.60;;;;;;5054135;28;20076;-40
2021/01/07 17:10:30;;;;;;;2.88;2.65;;;18.70;59.50;;;;;;5067479;28;20044;-36
2021/01/07 17:12:56;;;;;;;2.63;2.53;;;18.70;59.00;;;;;;5067012;28;20062;-35
2021/01/07 17:15:21;;;;;;;2.03;1.92;;;18.60;59.10;;;;;;5056556;28;20455;-36
2021/01/07 17:17:47;;;;;;;2.28;2.17;;;18.60;59.10;;;;;;5071139;28;20048;-36
2021/01/07 17:20:13;;;;;;;4.30;2.40;;;18.60;59.30;;;;;;5071430;28;20041;-35
2021/01/07 17:22:38;;;;;;;2.38;2.28;;;18.50;59.40;;;;;;5044503;28;20052;-34
2021/01/07 17:25:04;;;;;;;2.30;2.20;;;18.60;59.40;;;;;;5044881;28;20045;-34
2021/01/07 17:27:30;;;;;;;2.17;2.08;;;18.50;59.40;;;;;;5045236;28;20080;-36
2021/01/07 17:29:57;;;;;;;2.70;2.40;;;18.50;59.40;;;;;;5047729;28;20508;-35
2021/01/07 17:32:23;;;;;;;2.40;2.30;;;18.50;59.40;;;;;;5047869;28;20119;-36
2021/01/07 17:34:49;;;;;;;2.58;2.47;;;18.50;59.30;;;;;;5044681;28;20608;-34
2021/01/07 17:37:14;;;;;;;2.60;2.50;;;18.50;59.30;;;;;;5043423;28;20048;-34
2021/01/07 17:39:40;;;;;;;2.50;2.33;;;18.50;59.30;;;;;;4690701;28;10000055;-35
2021/01/07 17:42:09;;;;;;;2.60;2.50;;;18.50;59.40;;;;;;5045390;28;20072;-34
2021/01/07 17:44:35;;;;;;;2.83;2.38;;;18.60;59.30;;;;;;5046624;28;20124;-36
2021/01/07 17:47:08;;;;;;;2.30;2.20;;;18.50;59.30;;;;;;5053892;28;20119;-35
2021/01/07 17:49:34;;;;;;;2.40;2.20;;;18.50;59.50;;;;;;5056801;28;20110;-36
2021/01/07 17:52:00;;;;;;;2.40;2.20;;;18.60;61.20;;;;;;5062635;28;20500;-36
2021/01/07 17:54:26;;;;;;;2.10;1.90;;;18.60;61.10;;;;;;5064019;28;20140;-36
2021/01/07 17:56:52;;;;;;;2.33;2.22;;;18.50;61.00;;;;;;5065604;28;20459;-38
2021/01/07 17:59:18;;;;;;;2.85;2.70;;;18.50;60.30;;;;;;5075420;28;20044;-35
2021/01/07 18:01:44;;;;;;;2.35;2.25;;;18.50;60.40;;;;;;5071698;28;20048;-34
2021/01/07 18:04:09;;;;;;;3.00;2.80;;;18.40;61.10;;;;;;5055965;28;20055;-41
2021/01/07 18:06:36;;;;;;;2.83;2.67;;;18.40;60.20;;;;;;5063019;28;20121;-37
2021/01/07 18:09:03;;;;;;;2.53;2.33;;;18.50;60.50;;;;;;5066299;28;20483;-36
2021/01/07 18:11:28;;;;;;;2.50;2.40;;;18.50;61.00;;;;;;5064354;28;20182;-35
2021/01/07 18:13:54;;;;;;;2.60;2.40;;;18.40;60.80;;;;;;5058584;28;20550;-34
2021/01/07 18:16:20;;;;;;;2.70;2.50;;;18.40;60.70;;;;;;5066855;28;20454;-35
2021/01/07 18:18:47;;;;;;;2.65;2.45;;;18.40;60.40;;;;;;5063668;28;20128;-35
2021/01/07 18:21:12;;;;;;;2.53;2.42;;;18.40;60.60;;;;;;5067150;28;20048;-37
2021/01/07 18:23:38;;;;;;;2.80;2.70;;;18.40;60.70;;;;;;5066097;28;20109;-35
2021/01/07 18:26:04;;;;;;;3.20;2.90;;;18.40;60.70;;;;;;5065363;28;20453;-38
2021/01/07 18:28:30;;;;;;;3.50;2.70;;;18.40;60.60;;;;;;5062831;28;20055;-34
2021/01/07 18:30:55;;;;;;;2.97;2.72;;;18.40;60.70;;;;;;5064866;28;20509;-35
2021/01/07 18:33:21;;;;;;;2.38;2.28;;;18.40;60.20;;;;;;5064042;28;20136;-37
2021/01/07 18:35:47;;;;;;;4.13;2.80;;;18.40;60.20;;;;;;5067129;28;20408;-34
2021/01/07 18:38:13;;;;;;;3.10;2.90;;;18.50;60.00;;;;;;5059576;28;20048;-35
2021/01/07 18:40:38;;;;;;;2.90;2.70;;;18.50;60.00;;;;;;5050904;28;20514;-34
2021/01/07 18:43:04;;;;;;;2.80;2.60;;;18.50;60.00;;;;;;5059117;28;20051;-35
2021/01/07 18:45:29;;;;;;;3.03;2.63;;;18.60;59.80;;;;;;5059972;28;20072;-38
2021/01/07 18:47:55;;;;;;;2.90;2.70;;;18.60;59.70;;;;;;5062424;28;20046;-38
2021/01/07 18:50:21;;;;;;;2.92;2.72;;;18.50;59.40;;;;;;5058221;28;20059;-34
2021/01/07 18:52:46;;;;;;;3.85;3.55;;;18.50;59.60;;;;;;5057043;28;20056;-37
2021/01/07 18:55:12;;;;;;;3.83;3.53;;;18.50;59.70;;;;;;5057564;28;20041;-37
2021/01/07 18:57:37;;;;;;;3.33;3.13;;;18.50;59.60;;;;;;5060807;28;20601;-36
2021/01/07 19:00:05;;;;;;;3.20;3.00;;;18.60;59.50;;;;;;5057265;28;20538;-35
2021/01/07 19:02:34;;;;;;;4.15;3.85;;;18.60;59.40;;;;;;5059763;28;20143;-45
2021/01/07 19:05:01;;;;;;;2.50;2.35;;;18.60;59.90;;;;;;5057125;28;20598;-37
2021/01/07 19:07:27;;;;;;;3.05;2.85;;;18.60;61.20;;;;;;5059621;28;20052;-36
2021/01/07 19:09:53;;;;;;;4.93;3.80;;;18.60;60.80;;;;;;5058504;28;20041;-39
2021/01/07 19:12:18;;;;;;;3.70;3.35;;;18.70;60.10;;;;;;5062831;28;20500;-34
2021/01/07 19:14:44;;;;;;;4.47;4.18;;;18.70;60.20;;;;;;5061640;28;20075;-36
2021/01/07 19:17:09;;;;;;;5.70;4.10;;;18.60;59.40;;;;;;5060755;28;20431;-34
2021/01/07 19:19:35;;;;;;;4.60;4.30;;;18.60;59.30;;;;;;5057420;28;20083;-33
2021/01/07 19:22:01;;;;;;;3.97;3.75;;;18.70;58.90;;;;;;5061003;28;20037;-32
2021/01/07 19:24:26;;;;;;;4.38;4.00;;;18.80;58.50;;;;;;5063010;28;20028;-34
2021/01/07 19:26:55;;;;;;;4.18;3.88;;;18.90;58.30;;;;;;5062171;28;20040;-34
2021/01/07 19:29:21;;;;;;;3.38;3.17;;;18.90;58.20;;;;;;5062363;28;20054;-33
2021/01/07 19:31:47;;;;;;;3.42;3.22;;;18.90;58.10;;;;;;5063522;28;20024;-33
2021/01/07 19:34:12;;;;;;;4.55;3.83;;;18.90;58.00;;;;;;5059498;28;20431;-33
2021/01/07 19:36:39;;;;;;;4.18;3.63;;;18.90;58.00;;;;;;5062178;28;20036;-33
2021/01/07 19:39:08;;;;;;;3.75;3.45;;;18.90;57.90;;;;;;5063225;28;20131;-45
2021/01/07 19:41:40;;;;;;;3.50;3.30;;;18.90;57.90;;;;;;5061632;28;20100;-33
2021/01/07 19:44:06;;;;;;;3.80;3.50;;;18.90;57.80;;;;;;5058568;28;20032;-34
2021/01/07 19:46:32;;;;;;;4.20;3.88;;;19.00;57.90;;;;;;5062350;28;20024;-40
2021/01/07 19:48:57;;;;;;;3.70;3.50;;;19.00;57.80;;;;;;5057888;28;20051;-35
2021/01/07 19:51:23;;;;;;;4.10;3.80;;;19.00;57.70;;;;;;5058185;28;20029;-33
2021/01/07 19:53:49;;;;;;;4.40;3.97;;;19.00;57.60;;;;;;5061535;28;20033;-32
2021/01/07 19:56:25;;;;;;;3.88;3.67;;;19.00;57.60;;;;;;5058312;28;20087;-37
2021/01/07 19:58:51;;;;;;;3.83;3.63;;;19.00;57.70;;;;;;5056442;28;20211;-34
2021/01/07 20:01:17;;;;;;;4.18;3.88;;;19.00;57.60;;;;;;5057063;28;20032;-31
2021/01/07 20:03:43;;;;;;;3.72;3.53;;;19.00;57.60;;;;;;5057855;28;20036;-36
2021/01/07 20:06:09;;;;;;;4.30;3.90;;;19.00;57.60;;;;;;5057956;28;20036;-36
2021/01/07 20:08:35;;;;;;;3.38;3.17;;;19.00;57.60;;;;;;5059487;28;20044;-30
2021/01/07 20:11:00;;;;;;;3.65;3.35;;;19.00;57.60;;;;;;5057421;28;20033;-33
2021/01/07 20:13:26;;;;;;;3.72;3.42;;;19.00;57.80;;;;;;5056049;28;20074;-37
2021/01/07 20:15:52;;;;;;;3.78;3.40;;;18.90;57.70;;;;;;5060155;28;20028;-41